Startpagina
METAR-TAF:

METAR-TAF

Vliegvelden :

Alice Springs, Australië

breedte: 23-48S, lengte: 133-53E, hoogte: 545 m

Actueel weer

Dit bericht is 38 minuten geleden gemaakt, om 01:30 UTC
Wind 9 kt uit het oosten
Temperatuur 31°C
Vochtigheid 16%
Druk 1020 hPa
Zicht 10 km of meer

METAR: YBAS 210130Z AUTO 08009KT 9999 // NCD 31/02 Q1020 RF00.0/000.0

Tijdstip: 11:38 (02:08 UTC)

Verwachting

Dit bericht is 3 uur en het 1 minuten geleden gemaakt, om 23:07 UTC
Verwachting geldig van 21 om 00 UTC tot 21 om 24 UTC
Wind 11 kt uit het oostzuidoosten
Zicht 10 km of meer
geen wolken onder 1500 m en geen cumulonimbus
Van 21 om 1000 UTC
Wind 6 kt uit het oostzuidoosten
Zicht 10 km of meer
geen wolken onder 1500 m en geen cumulonimbus

TAF: YBAS 202307Z 2100/2124 11011KT CAVOK FM211000 11006KT CAVOK

Waarnemingen en weersverwachtingen van meer dan 4000 vliegvelden (METAR en TAF).

De beschikbare stations zijn de gele en rode punten op de kaart.

Ga met uw muis naar het station om de naam te zien.

Klik dan om waarnemingen en weersverwachtingen te zien.

kaart wijzigen: klik op de groene knoppen met een zwart kruis om in te zoomen, op de groene knop met een streepje om uit te zoomen of op de groene pijlen voor aangrenzende kaarten.


METAR-TAF: